sensor_id;sensor_type;location;lat;lon;timestamp;pressure;altitude;pressure_sealevel;temperature;humidity
80640;BME280;69992;60.170;24.692;2023-08-21T00:01:53;101781.32;;;8.73;27.00
80640;BME280;69992;60.170;24.692;2023-08-21T00:04:19;101777.56;;;7.79;27.00
80640;BME280;69992;60.170;24.692;2023-08-21T00:06:45;101775.28;;;7.85;26.99
80640;BME280;69992;60.170;24.692;2023-08-21T00:09:10;101778.13;;;7.87;27.01
80640;BME280;69992;60.170;24.692;2023-08-21T00:11:36;101778.25;;;8.85;27.01
80640;BME280;69992;60.170;24.692;2023-08-21T00:14:01;101778.18;;;8.91;27.01
80640;BME280;69992;60.170;24.692;2023-08-21T00:16:26;101774.10;;;7.96;26.99
80640;BME280;69992;60.170;24.692;2023-08-21T00:18:52;101771.80;;;8.90;27.03
80640;BME280;69992;60.170;24.692;2023-08-21T00:21:19;101768.32;;;8.94;27.03
80640;BME280;69992;60.170;24.692;2023-08-21T00:23:45;101766.83;;;9.01;27.02
80640;BME280;69992;60.170;24.692;2023-08-21T00:26:09;101766.25;;;8.97;27.02
80640;BME280;69992;60.170;24.692;2023-08-21T00:28:34;101768.13;;;8.96;27.02
80640;BME280;69992;60.170;24.692;2023-08-21T00:31:01;101764.50;;;6.97;27.05
80640;BME280;69992;60.170;24.692;2023-08-21T00:33:26;101762.84;;;7.98;27.05
80640;BME280;69992;60.170;24.692;2023-08-21T00:35:51;101758.33;;;7.02;27.04
80640;BME280;69992;60.170;24.692;2023-08-21T00:38:17;101756.41;;;9.02;27.03
80640;BME280;69992;60.170;24.692;2023-08-21T00:40:42;101758.23;;;9.06;27.03
80640;BME280;69992;60.170;24.692;2023-08-21T00:43:08;101759.03;;;7.06;27.05
80640;BME280;69992;60.170;24.692;2023-08-21T00:45:33;101757.25;;;8.09;27.04
80640;BME280;69992;60.170;24.692;2023-08-21T00:47:59;101754.60;;;7.16;27.04
80640;BME280;69992;60.170;24.692;2023-08-21T00:50:24;101753.28;;;9.20;27.02
80640;BME280;69992;60.170;24.692;2023-08-21T00:52:50;101752.31;;;7.23;27.03
80640;BME280;69992;60.170;24.692;2023-08-21T00:55:16;101751.92;;;7.25;27.03
80640;BME280;69992;60.170;24.692;2023-08-21T00:57:41;101745.73;;;9.26;27.03
80640;BME280;69992;60.170;24.692;2023-08-21T01:00:07;101745.85;;;9.33;27.01
80640;BME280;69992;60.170;24.692;2023-08-21T01:02:32;101741.29;;;7.40;27.02
80640;BME280;69992;60.170;24.692;2023-08-21T01:04:57;101737.99;;;8.39;27.04
80640;BME280;69992;60.170;24.692;2023-08-21T01:07:23;101736.88;;;7.41;27.05
80640;BME280;69992;60.170;24.692;2023-08-21T01:09:54;101737.61;;;7.39;27.07
80640;BME280;69992;60.170;24.692;2023-08-21T01:12:22;101738.86;;;9.42;27.06
80640;BME280;69992;60.170;24.692;2023-08-21T01:14:46;101735.53;;;8.52;27.05
80640;BME280;69992;60.170;24.692;2023-08-21T01:17:06;101733.23;;;7.58;27.05
80640;BME280;69992;60.170;24.692;2023-08-21T01:19:36;101732.90;;;8.62;27.03
80640;BME280;69992;60.170;24.692;2023-08-21T01:21:57;101730.04;;;7.65;27.02
80640;BME280;69992;60.170;24.692;2023-08-21T01:24:22;101730.35;;;8.53;27.06
80640;BME280;69992;60.170;24.692;2023-08-21T01:26:48;101732.47;;;7.54;27.07
80640;BME280;69992;60.170;24.692;2023-08-21T01:29:13;101729.01;;;7.54;27.08
80640;BME280;69992;60.170;24.692;2023-08-21T01:31:40;101729.82;;;8.55;27.08
80640;BME280;69992;60.170;24.692;2023-08-21T01:34:06;101730.56;;;7.62;27.07
80640;BME280;69992;60.170;24.692;2023-08-21T01:36:31;101725.13;;;7.71;27.05
80640;BME280;69992;60.170;24.692;2023-08-21T01:38:56;101723.43;;;7.75;27.06
80640;BME280;69992;60.170;24.692;2023-08-21T01:41:23;101719.06;;;7.83;27.08
80640;BME280;69992;60.170;24.692;2023-08-21T01:43:47;101715.44;;;7.92;27.05
80640;BME280;69992;60.170;24.692;2023-08-21T01:46:13;101714.70;;;9.93;27.06
80640;BME280;69992;60.170;24.692;2023-08-21T01:48:38;101712.26;;;8.98;27.06
80640;BME280;69992;60.170;24.692;2023-08-21T01:51:04;101711.73;;;8.05;27.08
80640;BME280;69992;60.170;24.692;2023-08-21T01:53:29;101709.77;;;8.08;27.09
80640;BME280;69992;60.170;24.692;2023-08-21T01:55:56;101704.46;;;8.17;27.08
80640;BME280;69992;60.170;24.692;2023-08-21T01:58:21;101705.80;;;8.25;27.08
80640;BME280;69992;60.170;24.692;2023-08-21T02:00:46;101705.83;;;8.31;27.08
80640;BME280;69992;60.170;24.692;2023-08-21T02:03:12;101703.85;;;8.36;27.09
80640;BME280;69992;60.170;24.692;2023-08-21T02:05:38;101703.60;;;8.40;27.10
80640;BME280;69992;60.170;24.692;2023-08-21T02:08:03;101701.65;;;8.51;27.09
80640;BME280;69992;60.170;24.692;2023-08-21T02:10:29;101698.11;;;8.59;27.08
80640;BME280;69992;60.170;24.692;2023-08-21T02:12:54;101697.30;;;7.70;27.08
80640;BME280;69992;60.170;24.692;2023-08-21T02:15:21;101697.29;;;8.73;27.08
80640;BME280;69992;60.170;24.692;2023-08-21T02:17:46;101696.12;;;8.77;27.10
80640;BME280;69992;60.170;24.692;2023-08-21T02:20:11;101694.43;;;8.86;27.10
80640;BME280;69992;60.170;24.692;2023-08-21T02:22:36;101688.92;;;8.95;27.08
80640;BME280;69992;60.170;24.692;2023-08-21T02:25:02;101686.39;;;9.06;27.06
80640;BME280;69992;60.170;24.692;2023-08-21T02:27:27;101685.15;;;9.10;27.08
80640;BME280;69992;60.170;24.692;2023-08-21T02:29:53;101682.02;;;9.13;27.09
80640;BME280;69992;60.170;24.692;2023-08-21T02:32:19;101681.30;;;9.13;27.12
80640;BME280;69992;60.170;24.692;2023-08-21T02:34:45;101677.01;;;9.16;27.12
80640;BME280;69992;60.170;24.692;2023-08-21T02:37:10;101674.14;;;9.15;27.13
80640;BME280;69992;60.170;24.692;2023-08-21T02:39:35;101672.88;;;9.16;27.13
80640;BME280;69992;60.170;24.692;2023-08-21T02:42:01;101671.74;;;9.19;27.11
80640;BME280;69992;60.170;24.692;2023-08-21T02:44:27;101673.03;;;9.10;27.15
80640;BME280;69992;60.170;24.692;2023-08-21T02:46:52;101670.24;;;9.05;27.19
80640;BME280;69992;60.170;24.692;2023-08-21T02:49:18;101670.35;;;9.06;27.19
80640;BME280;69992;60.170;24.692;2023-08-21T02:51:44;101665.49;;;9.06;27.20
80640;BME280;69992;60.170;24.692;2023-08-21T02:54:09;101659.38;;;9.03;27.23
80640;BME280;69992;60.170;24.692;2023-08-21T02:56:35;101654.32;;;8.11;27.23
80640;BME280;69992;60.170;24.692;2023-08-21T02:59:00;101652.45;;;9.16;27.23
80640;BME280;69992;60.170;24.692;2023-08-21T03:01:26;101650.02;;;9.25;27.19
80640;BME280;69992;60.170;24.692;2023-08-21T03:03:51;101652.93;;;9.31;27.20
80640;BME280;69992;60.170;24.692;2023-08-21T03:06:17;101657.41;;;9.38;27.18
80640;BME280;69992;60.170;24.692;2023-08-21T03:08:43;101653.95;;;9.41;27.19
80640;BME280;69992;60.170;24.692;2023-08-21T03:11:08;101655.18;;;9.43;27.20
80640;BME280;69992;60.170;24.692;2023-08-21T03:13:34;101654.35;;;8.54;27.20
80640;BME280;69992;60.170;24.692;2023-08-21T03:15:59;101653.96;;;9.54;27.20
80640;BME280;69992;60.170;24.692;2023-08-21T03:18:30;101651.02;;;9.55;27.20
80640;BME280;69992;60.170;24.692;2023-08-21T03:20:51;101649.89;;;8.62;27.20
80640;BME280;69992;60.170;24.692;2023-08-21T03:23:16;101647.67;;;8.62;27.21
80640;BME280;69992;60.170;24.692;2023-08-21T03:25:43;101646.53;;;9.60;27.21
80640;BME280;69992;60.170;24.692;2023-08-21T03:28:07;101643.64;;;8.63;27.22
80640;BME280;69992;60.170;24.692;2023-08-21T03:30:33;101646.28;;;9.60;27.24
80640;BME280;69992;60.170;24.692;2023-08-21T03:32:59;101646.07;;;9.61;27.25
80640;BME280;69992;60.170;24.692;2023-08-21T03:35:24;101644.23;;;8.67;27.25
80640;BME280;69992;60.170;24.692;2023-08-21T03:37:50;101641.13;;;8.66;27.27
80640;BME280;69992;60.170;24.692;2023-08-21T03:40:16;101642.60;;;9.71;27.25
80640;BME280;69992;60.170;24.692;2023-08-21T03:42:41;101639.33;;;8.76;27.25
80640;BME280;69992;60.170;24.692;2023-08-21T03:45:08;101635.07;;;8.82;27.26
80640;BME280;69992;60.170;24.692;2023-08-21T03:47:32;101629.74;;;8.83;27.25
80640;BME280;69992;60.170;24.692;2023-08-21T03:49:58;101626.44;;;8.88;27.26
80640;BME280;69992;60.170;24.692;2023-08-21T03:52:24;101626.32;;;9.00;27.25
80640;BME280;69992;60.170;24.692;2023-08-21T03:54:49;101621.94;;;8.05;27.26
80640;BME280;69992;60.170;24.692;2023-08-21T03:57:15;101619.06;;;9.10;27.26
80640;BME280;69992;60.170;24.692;2023-08-21T03:59:40;101618.10;;;9.18;27.27
80640;BME280;69992;60.170;24.692;2023-08-21T04:02:06;101618.49;;;9.24;27.27
80640;BME280;69992;60.170;24.692;2023-08-21T04:04:31;101613.30;;;9.29;27.28
80640;BME280;69992;60.170;24.692;2023-08-21T04:06:57;101611.68;;;9.38;27.27
80640;BME280;69992;60.170;24.692;2023-08-21T04:09:23;101606.76;;;9.44;27.27
80640;BME280;69992;60.170;24.692;2023-08-21T04:11:48;101606.46;;;9.50;27.28
80640;BME280;69992;60.170;24.692;2023-08-21T04:14:14;101606.20;;;8.52;27.28
80640;BME280;69992;60.170;24.692;2023-08-21T04:16:39;101605.21;;;9.52;27.30
80640;BME280;69992;60.170;24.692;2023-08-21T04:19:05;101600.80;;;8.60;27.32
80640;BME280;69992;60.170;24.692;2023-08-21T04:21:30;101597.21;;;9.70;27.30
80640;BME280;69992;60.170;24.692;2023-08-21T04:23:56;101593.83;;;8.80;27.29
80640;BME280;69992;60.170;24.692;2023-08-21T04:26:22;101592.21;;;9.88;27.28
80640;BME280;69992;60.170;24.692;2023-08-21T04:28:47;101591.26;;;8.98;27.28
80640;BME280;69992;60.170;24.692;2023-08-21T04:31:13;101587.76;;;10.03;27.29
80640;BME280;69992;60.170;24.692;2023-08-21T04:33:38;101583.72;;;10.13;27.29
80640;BME280;69992;60.170;24.692;2023-08-21T04:36:04;101581.86;;;9.28;27.30
80640;BME280;69992;60.170;24.692;2023-08-21T04:38:29;101578.44;;;9.41;27.28
80640;BME280;69992;60.170;24.692;2023-08-21T04:40:55;101577.24;;;10.49;27.27
80640;BME280;69992;60.170;24.692;2023-08-21T04:43:21;101576.76;;;10.59;27.27
80640;BME280;69992;60.170;24.692;2023-08-21T04:45:47;101577.06;;;8.73;27.26
80640;BME280;69992;60.170;24.692;2023-08-21T04:48:12;101572.67;;;9.79;27.27
80640;BME280;69992;60.170;24.692;2023-08-21T04:50:37;101569.44;;;9.82;27.27
80640;BME280;69992;60.170;24.692;2023-08-21T04:53:03;101563.59;;;9.83;27.31
80640;BME280;69992;60.170;24.692;2023-08-21T04:55:28;101561.79;;;9.93;27.31
80640;BME280;69992;60.170;24.692;2023-08-21T04:57:54;101561.55;;;9.09;27.31
80640;BME280;69992;60.170;24.692;2023-08-21T05:00:19;101563.00;;;11.21;27.30
80640;BME280;69992;60.170;24.692;2023-08-21T05:02:45;101564.49;;;10.36;27.27
80640;BME280;69992;60.170;24.692;2023-08-21T05:05:10;101566.23;;;10.41;27.31
80640;BME280;69992;60.170;24.692;2023-08-21T05:07:36;101563.93;;;10.51;27.31
80640;BME280;69992;60.170;24.692;2023-08-21T05:10:02;101561.88;;;10.62;27.31
80640;BME280;69992;60.170;24.692;2023-08-21T05:12:27;101560.99;;;9.76;27.30
80640;BME280;69992;60.170;24.692;2023-08-21T05:14:53;101562.31;;;10.88;27.30
80640;BME280;69992;60.170;24.692;2023-08-21T05:17:18;101562.57;;;11.01;27.29
80640;BME280;69992;60.170;24.692;2023-08-21T05:19:44;101561.69;;;9.14;27.28
80640;BME280;69992;60.170;24.692;2023-08-21T05:22:09;101561.27;;;11.09;27.34
80640;BME280;69992;60.170;24.692;2023-08-21T05:24:35;101560.78;;;11.22;27.36
80640;BME280;69992;60.170;24.692;2023-08-21T05:27:00;101563.40;;;10.39;27.33
80640;BME280;69992;60.170;24.692;2023-08-21T05:29:26;101563.65;;;9.58;27.30
80640;BME280;69992;60.170;24.692;2023-08-21T05:31:51;101556.86;;;9.77;27.29
80640;BME280;69992;60.170;24.692;2023-08-21T05:34:17;101556.72;;;10.01;27.24
80640;BME280;69992;60.170;24.692;2023-08-21T05:36:42;101557.97;;;10.11;27.26
80640;BME280;69992;60.170;24.692;2023-08-21T05:39:08;101555.69;;;10.18;27.30
80640;BME280;69992;60.170;24.692;2023-08-21T05:41:33;101553.40;;;11.31;27.28
80640;BME280;69992;60.170;24.692;2023-08-21T05:43:59;101554.01;;;11.43;27.29
80640;BME280;69992;60.170;24.692;2023-08-21T05:46:24;101550.50;;;10.57;27.30
80640;BME280;69992;60.170;24.692;2023-08-21T05:48:50;101548.30;;;10.72;27.30
80640;BME280;69992;60.170;24.692;2023-08-21T05:51:16;101548.10;;;11.88;27.29
80640;BME280;69992;60.170;24.692;2023-08-21T05:53:41;101547.58;;;11.03;27.31
80640;BME280;69992;60.170;24.692;2023-08-21T05:56:07;101548.42;;;11.14;27.33
80640;BME280;69992;60.170;24.692;2023-08-21T05:58:32;101549.16;;;11.29;27.32
80640;BME280;69992;60.170;24.692;2023-08-21T06:00:58;101545.42;;;11.44;27.32
80640;BME280;69992;60.170;24.692;2023-08-21T06:03:23;101547.58;;;11.56;27.32
80640;BME280;69992;60.170;24.692;2023-08-21T06:05:49;101548.13;;;11.68;27.32
80640;BME280;69992;60.170;24.692;2023-08-21T06:08:14;101550.96;;;11.71;27.33
80640;BME280;69992;60.170;24.692;2023-08-21T06:10:40;101550.35;;;11.76;27.36
80640;BME280;69992;60.170;24.692;2023-08-21T06:13:05;101549.03;;;10.91;27.36
80640;BME280;69992;60.170;24.692;2023-08-21T06:15:31;101543.91;;;12.02;27.36
80640;BME280;69992;60.170;24.692;2023-08-21T06:17:58;101542.34;;;12.13;27.37
80640;BME280;69992;60.170;24.692;2023-08-21T06:20:22;101539.91;;;12.27;27.37
80640;BME280;69992;60.170;24.692;2023-08-21T06:22:47;101540.24;;;11.34;27.40
80640;BME280;69992;60.170;24.692;2023-08-21T06:25:13;101539.67;;;12.32;27.43
80640;BME280;69992;60.170;24.692;2023-08-21T06:27:38;101538.19;;;11.40;27.44
80640;BME280;69992;60.170;24.692;2023-08-21T06:30:05;101537.02;;;12.50;27.45
80640;BME280;69992;60.170;24.692;2023-08-21T06:32:29;101534.53;;;12.67;27.45
80640;BME280;69992;60.170;24.692;2023-08-21T06:34:55;101534.12;;;10.88;27.45
80640;BME280;69992;60.170;24.692;2023-08-21T06:37:20;101532.97;;;11.97;27.46
80640;BME280;69992;60.170;24.692;2023-08-21T06:39:46;101531.50;;;11.12;27.46
80640;BME280;69992;60.170;24.692;2023-08-21T06:42:11;101529.24;;;12.19;27.46
80640;BME280;69992;60.170;24.692;2023-08-21T06:44:37;101527.64;;;11.29;27.48
80640;BME280;69992;60.170;24.692;2023-08-21T06:47:02;101523.27;;;11.44;27.48
80640;BME280;69992;60.170;24.692;2023-08-21T06:49:28;101524.23;;;12.61;27.47
80640;BME280;69992;60.170;24.692;2023-08-21T06:51:53;101521.92;;;11.75;27.50
80640;BME280;69992;60.170;24.692;2023-08-21T06:54:19;101523.18;;;11.91;27.49
80640;BME280;69992;60.170;24.692;2023-08-21T06:56:45;101521.22;;;13.00;27.52
80640;BME280;69992;60.170;24.692;2023-08-21T06:59:10;101518.17;;;13.14;27.53
80640;BME280;69992;60.170;24.692;2023-08-21T07:01:35;101515.07;;;11.38;27.52
80640;BME280;69992;60.170;24.692;2023-08-21T07:04:00;101518.72;;;12.54;27.53
80640;BME280;69992;60.170;24.692;2023-08-21T07:06:27;101517.46;;;12.69;27.54
80640;BME280;69992;60.170;24.692;2023-08-21T07:08:51;101518.14;;;12.91;27.53
80640;BME280;69992;60.170;24.692;2023-08-21T07:11:17;101513.87;;;14.06;27.53
80640;BME280;69992;60.170;24.692;2023-08-21T07:13:43;101513.74;;;13.29;27.52
80640;BME280;69992;60.170;24.692;2023-08-21T07:16:08;101513.54;;;13.37;27.56
80640;BME280;69992;60.170;24.692;2023-08-21T07:18:34;101511.07;;;12.60;27.55
80640;BME280;69992;60.170;24.692;2023-08-21T07:20:59;101508.94;;;12.72;27.55
80640;BME280;69992;60.170;24.692;2023-08-21T07:23:25;101507.60;;;12.79;27.57
80640;BME280;69992;60.170;24.692;2023-08-21T07:25:50;101510.37;;;11.94;27.58
80640;BME280;69992;60.170;24.692;2023-08-21T07:28:15;101512.60;;;13.05;27.60
80640;BME280;69992;60.170;24.692;2023-08-21T07:30:41;101511.72;;;14.20;27.60
80640;BME280;69992;60.170;24.692;2023-08-21T07:33:06;101511.42;;;13.38;27.61
80640;BME280;69992;60.170;24.692;2023-08-21T07:35:32;101508.51;;;13.47;27.62
80640;BME280;69992;60.170;24.692;2023-08-21T07:37:57;101507.42;;;12.67;27.63
80640;BME280;69992;60.170;24.692;2023-08-21T07:40:23;101501.08;;;14.88;27.61
80640;BME280;69992;60.170;24.692;2023-08-21T07:42:48;101497.70;;;13.18;27.61
80640;BME280;69992;60.170;24.692;2023-08-21T07:45:13;101494.83;;;13.43;27.60
80640;BME280;69992;60.170;24.692;2023-08-21T07:47:39;101494.98;;;13.70;27.61
80640;BME280;69992;60.170;24.692;2023-08-21T07:50:05;101493.89;;;14.07;27.57
80640;BME280;69992;60.170;24.692;2023-08-21T07:52:30;101494.17;;;14.32;27.57
80640;BME280;69992;60.170;24.692;2023-08-21T07:54:55;101490.98;;;14.61;27.60
80640;BME280;69992;60.170;24.692;2023-08-21T07:57:20;101488.28;;;14.93;27.59
80640;BME280;69992;60.170;24.692;2023-08-21T07:59:46;101487.48;;;13.35;27.55
80640;BME280;69992;60.170;24.692;2023-08-21T08:02:11;101488.32;;;15.77;27.53
80640;BME280;69992;60.170;24.692;2023-08-21T08:04:37;101489.75;;;15.31;27.49
80640;BME280;69992;60.170;24.692;2023-08-21T08:07:02;101485.65;;;14.84;27.44
80640;BME280;69992;60.170;24.692;2023-08-21T08:09:28;101484.85;;;15.37;27.41
80640;BME280;69992;60.170;24.692;2023-08-21T08:11:53;101487.94;;;15.90;27.39
80640;BME280;69992;60.170;24.692;2023-08-21T08:14:19;101489.59;;;16.44;27.35
80640;BME280;69992;60.170;24.692;2023-08-21T08:16:45;101488.07;;;15.99;27.34
80640;BME280;69992;60.170;24.692;2023-08-21T08:19:10;101485.98;;;15.55;27.29
80640;BME280;69992;60.170;24.692;2023-08-21T08:21:35;101486.27;;;15.03;27.27
80640;BME280;69992;60.170;24.692;2023-08-21T08:24:00;101484.70;;;18.42;27.27
80640;BME280;69992;60.170;24.692;2023-08-21T08:26:26;101483.48;;;15.86;27.27
80640;BME280;69992;60.170;24.692;2023-08-21T08:28:51;101476.41;;;17.11;27.30
80640;BME280;69992;60.170;24.692;2023-08-21T08:31:17;101476.43;;;17.37;27.33
80640;BME280;69992;60.170;24.692;2023-08-21T08:33:42;101474.91;;;17.73;27.33
80640;BME280;69992;60.170;24.692;2023-08-21T08:36:08;101473.56;;;17.98;27.34
80640;BME280;69992;60.170;24.692;2023-08-21T08:38:33;101475.95;;;18.04;27.39
80640;BME280;69992;60.170;24.692;2023-08-21T08:40:58;101476.88;;;17.14;27.44
80640;BME280;69992;60.170;24.692;2023-08-21T08:43:25;101477.39;;;17.17;27.50
80640;BME280;69992;60.170;24.692;2023-08-21T08:45:49;101476.49;;;17.26;27.52
80640;BME280;69992;60.170;24.692;2023-08-21T08:48:14;101474.19;;;16.36;27.58
80640;BME280;69992;60.170;24.692;2023-08-21T08:50:39;101471.04;;;17.47;27.60
80640;BME280;69992;60.170;24.692;2023-08-21T08:53:07;101469.52;;;16.61;27.64
80640;BME280;69992;60.170;24.692;2023-08-21T08:55:30;101468.28;;;17.76;27.64
80640;BME280;69992;60.170;24.692;2023-08-21T08:57:55;101465.83;;;16.85;27.67
80640;BME280;69992;60.170;24.692;2023-08-21T09:00:20;101465.43;;;17.91;27.69
80640;BME280;69992;60.170;24.692;2023-08-21T09:02:46;101464.19;;;17.05;27.70
80640;BME280;69992;60.170;24.692;2023-08-21T09:05:12;101461.66;;;17.09;27.72
80640;BME280;69992;60.170;24.692;2023-08-21T09:07:37;101459.06;;;17.11;27.75
80640;BME280;69992;60.170;24.692;2023-08-21T09:10:03;101457.24;;;17.22;27.77
80640;BME280;69992;60.170;24.692;2023-08-21T09:12:31;101457.41;;;17.39;27.78
80640;BME280;69992;60.170;24.692;2023-08-21T09:14:53;101454.34;;;17.65;27.77
80640;BME280;69992;60.170;24.692;2023-08-21T09:17:18;101452.49;;;17.85;27.76
80640;BME280;69992;60.170;24.692;2023-08-21T09:19:44;101450.12;;;18.03;27.75
80640;BME280;69992;60.170;24.692;2023-08-21T09:22:10;101445.50;;;17.24;27.77
80640;BME280;69992;60.170;24.692;2023-08-21T09:24:34;101443.48;;;18.70;27.76
80640;BME280;69992;60.170;24.692;2023-08-21T09:27:00;101440.79;;;19.33;27.71
80640;BME280;69992;60.170;24.692;2023-08-21T09:29:25;101432.79;;;20.13;27.60
80640;BME280;69992;60.170;24.692;2023-08-21T09:31:51;101429.92;;;19.09;27.45
80640;BME280;69992;60.170;24.692;2023-08-21T09:34:16;101426.62;;;19.70;27.19
80640;BME280;69992;60.170;24.692;2023-08-21T09:36:42;101427.60;;;20.67;26.91
80640;BME280;69992;60.170;24.692;2023-08-21T09:39:15;101428.78;;;22.15;26.73
80640;BME280;69992;60.170;24.692;2023-08-21T09:41:32;101424.68;;;22.05;26.47
80640;BME280;69992;60.170;24.692;2023-08-21T09:43:59;101427.10;;;22.67;26.28
80640;BME280;69992;60.170;24.692;2023-08-21T09:46:24;101424.39;;;23.69;26.20
80640;BME280;69992;60.170;24.692;2023-08-21T09:48:48;101425.57;;;22.93;26.06
80640;BME280;69992;60.170;24.692;2023-08-21T09:51:13;101420.55;;;24.40;25.90
80640;BME280;69992;60.170;24.692;2023-08-21T09:53:40;101418.94;;;24.79;25.78
80640;BME280;69992;60.170;24.692;2023-08-21T09:56:05;101420.25;;;25.83;25.69
80640;BME280;69992;60.170;24.692;2023-08-21T09:58:29;101422.26;;;25.98;25.59
80640;BME280;69992;60.170;24.692;2023-08-21T10:00:58;101420.32;;;26.38;25.70
80640;BME280;69992;60.170;24.692;2023-08-21T10:03:21;101420.39;;;26.11;25.70
80640;BME280;69992;60.170;24.692;2023-08-21T10:05:47;101416.99;;;27.43;25.54
80640;BME280;69992;60.170;24.692;2023-08-21T10:08:11;101416.69;;;27.58;25.49
80640;BME280;69992;60.170;24.692;2023-08-21T10:10:38;101418.11;;;26.92;25.55
80640;BME280;69992;60.170;24.692;2023-08-21T10:13:02;101420.71;;;26.75;25.75
80640;BME280;69992;60.170;24.692;2023-08-21T10:15:28;101417.87;;;27.40;25.94
80640;BME280;69992;60.170;24.692;2023-08-21T10:17:52;101413.66;;;25.65;26.16
80640;BME280;69992;60.170;24.692;2023-08-21T10:20:21;101416.67;;;25.95;26.40
80640;BME280;69992;60.170;24.692;2023-08-21T10:22:44;101410.98;;;25.46;26.38
80640;BME280;69992;60.170;24.692;2023-08-21T10:25:14;101407.27;;;26.39;26.48
80640;BME280;69992;60.170;24.692;2023-08-21T10:27:34;101407.95;;;26.53;26.69
80640;BME280;69992;60.170;24.692;2023-08-21T10:29:58;101403.78;;;25.11;26.82
80640;BME280;69992;60.170;24.692;2023-08-21T10:32:24;101401.89;;;25.79;26.92
80640;BME280;69992;60.170;24.692;2023-08-21T10:34:54;101397.24;;;24.34;27.05
80640;BME280;69992;60.170;24.692;2023-08-21T10:37:15;101394.33;;;24.77;27.16
80640;BME280;69992;60.170;24.692;2023-08-21T10:39:55;101393.71;;;26.02;27.30
80640;BME280;69992;60.170;24.692;2023-08-21T10:42:07;101393.10;;;25.33;27.44
80640;BME280;69992;60.170;24.692;2023-08-21T10:44:35;101385.82;;;22.49;27.62
80640;BME280;69992;60.170;24.692;2023-08-21T10:49:22;101388.00;;;23.36;27.82
80640;BME280;69992;60.170;24.692;2023-08-21T10:51:47;101384.36;;;21.94;27.89
80640;BME280;69992;60.170;24.692;2023-08-21T10:54:13;101380.98;;;23.53;27.97
80640;BME280;69992;60.170;24.692;2023-08-21T10:56:38;101379.81;;;22.16;28.03
80640;BME280;69992;60.170;24.692;2023-08-21T10:59:03;101378.43;;;21.91;28.09
80640;BME280;69992;60.170;24.692;2023-08-21T11:01:42;101377.83;;;22.53;28.14
80640;BME280;69992;60.170;24.692;2023-08-21T11:03:54;101375.28;;;23.25;28.18
80640;BME280;69992;60.170;24.692;2023-08-21T11:06:19;101373.40;;;23.21;28.20
80640;BME280;69992;60.170;24.692;2023-08-21T11:08:45;101371.39;;;23.17;28.20
80640;BME280;69992;60.170;24.692;2023-08-21T11:11:10;101368.45;;;22.31;28.20
80640;BME280;69992;60.170;24.692;2023-08-21T11:13:35;101368.70;;;23.42;28.18
80640;BME280;69992;60.170;24.692;2023-08-21T11:16:02;101366.50;;;21.41;28.19
80640;BME280;69992;60.170;24.692;2023-08-21T11:18:32;101361.06;;;23.10;28.22
80640;BME280;69992;60.170;24.692;2023-08-21T11:20:51;101358.65;;;21.79;28.24
80640;BME280;69992;60.170;24.692;2023-08-21T11:23:17;101356.53;;;22.42;28.28
80640;BME280;69992;60.170;24.692;2023-08-21T11:25:42;101354.50;;;21.95;28.34
80640;BME280;69992;60.170;24.692;2023-08-21T11:28:08;101351.56;;;21.55;28.43
80640;BME280;69992;60.170;24.692;2023-08-21T11:30:34;101352.58;;;21.36;28.46
80640;BME280;69992;60.170;24.692;2023-08-21T11:33:05;101352.19;;;20.28;28.47
80640;BME280;69992;60.170;24.692;2023-08-21T11:35:24;101351.77;;;20.95;28.51
80640;BME280;69992;60.170;24.692;2023-08-21T11:37:49;101346.81;;;20.53;28.57
80640;BME280;69992;60.170;24.692;2023-08-21T11:40:14;101346.42;;;21.24;28.60
80640;BME280;69992;60.170;24.692;2023-08-21T11:42:40;101347.55;;;21.07;28.62
80640;BME280;69992;60.170;24.692;2023-08-21T11:45:06;101347.23;;;22.01;28.62
80640;BME280;69992;60.170;24.692;2023-08-21T11:47:32;101345.38;;;21.07;28.59
80640;BME280;69992;60.170;24.692;2023-08-21T11:49:56;101343.90;;;21.36;28.54
80640;BME280;69992;60.170;24.692;2023-08-21T11:52:23;101341.81;;;21.62;28.52
80640;BME280;69992;60.170;24.692;2023-08-21T11:54:48;101337.03;;;20.81;28.52
80640;BME280;69992;60.170;24.692;2023-08-21T11:57:13;101339.15;;;21.93;28.49
80640;BME280;69992;60.170;24.692;2023-08-21T11:59:37;101337.80;;;20.98;28.48
80640;BME280;69992;60.170;24.692;2023-08-21T12:02:08;101335.20;;;21.05;28.46
80640;BME280;69992;60.170;24.692;2023-08-21T12:04:28;101327.15;;;22.14;28.41
80640;BME280;69992;60.170;24.692;2023-08-21T12:06:54;101328.33;;;21.46;28.38
80640;BME280;69992;60.170;24.692;2023-08-21T12:09:19;101328.48;;;21.81;28.34
80640;BME280;69992;60.170;24.692;2023-08-21T12:11:45;101326.16;;;21.96;28.33
80640;BME280;69992;60.170;24.692;2023-08-21T12:14:10;101329.19;;;22.95;28.35
80640;BME280;69992;60.170;24.692;2023-08-21T12:16:35;101328.54;;;21.74;28.36
80640;BME280;69992;60.170;24.692;2023-08-21T12:19:01;101323.02;;;21.49;28.38
80640;BME280;69992;60.170;24.692;2023-08-21T12:21:26;101322.92;;;21.30;28.38
80640;BME280;69992;60.170;24.692;2023-08-21T12:23:51;101321.22;;;20.87;28.44
80640;BME280;69992;60.170;24.692;2023-08-21T12:26:17;101320.16;;;22.32;28.51
80640;BME280;69992;60.170;24.692;2023-08-21T12:28:42;101315.05;;;20.70;28.59
80640;BME280;69992;60.170;24.692;2023-08-21T12:31:07;101314.22;;;21.11;28.69
80640;BME280;69992;60.170;24.692;2023-08-21T12:33:33;101309.37;;;20.59;28.77
80640;BME280;69992;60.170;24.692;2023-08-21T12:35:58;101306.69;;;20.12;28.83